Aérodrome :
LOGIN :

S'inscrire | Disclaimer

   EN    FR    IT 

 










Légende :    VFR   VFR Marginal   IFR   IFR Intensif   IFR Très Intensif
Visi : 
Plafond : 
>= 8 km
>= 3000ft
5 à 8 km
1000 à 3000 ft
1500m à 5 km
500 à 1000 ft
800 à 1500m
200 à 500 ft
< 800m
< 200 ft
Symboles :   Orages  Brouillard  Fortes neiges  Fortes précipitations  Vent > 20 kt
SIGMETs :   Divers  Orages  Givrage  Turbulence  Onde Orograph.  Cendres Volcan.






- Altitude de l'aérodrome : 502 ft
- Code IATA : ORK


EICK - Cork

DERNIER METAR :
  • 072200Z 24019G31KT 9999 SCT004 BKN009 BKN016 12/12 Q0998 NOSIG

METARs EXPIRÉS :
  • 072130Z 23021KT 4000 -RA FEW002 BKN004 12/12 Q0998 TEMPO 2000 BKN002
  • 072100Z 23020KT 3000 -RA FEW002 BKN004 12/11 Q0998 RERA TEMPO 2000 BKN002
  • 072030Z 22023KT 3000 RA SCT002 BKN004 12/11 Q0998 TEMPO 2000 BKN002
  • 072000Z 22024KT 4000 RA FEW002 BKN004 11/11 Q0999 TEMPO 2000 BKN002
  • 071930Z 21025KT 4000 RA BKN003 11/11 Q0999 TEMPO 0800

TAF TAF EICK
Valide du 07 à 18h jusqu'au 08 à 18h UTC


071700Z 0718/0818 20020G33KT 7000 -DZ SCT003 BKN008
TEMPO 0718/0722 3000 -RADZ BKN003
PROB30
TEMPO 0718/0722 0800 RADZ FG BKN001
BECMG 0722/0724 27021G35KT 9999 NSW FEW012 SCT030
PROB30
TEMPO 0801/0805 -SHRA FEW018CB
TEMPO 0805/0818 5000 SHRA BKN012 SCT018CB
TEMPO 0805/0814 26023G40KT
BECMG 0814/0816 26026G45KT
TEMPO 0816/0818 26028G50KT



MET'MAP, la Météo Aéronautique d'un coup d'oeil ! - Copyright ORBIFLY Décembre 2007 - Disclaimer

ORBIFLY MET'MAP TEAM :

Programmation & Développement : Alexandra Zaïnal
Sur une idée originale de : Baudouin d'Aumeries
Assistance à la programmation : Marc-Olivier Méhu
Soutien technique & logistique : Manuel Goepfert

Contact : metmap@orbifly.com




SOURCES & CREDITS :

   NOAA